Time;durP1;ratioP1;P1;durP2;ratioP2;P2;SDS_P1;SDS_P2;PMS_P1;PMS_P2;Temp;Humidity;BMP_temperature;BMP_pressure;BME280_temperature;BME280_humidity;BME280_pressure;Samples;Min_cycle;Max_cycle;Signal;HPM_P1;HPM_P2
2023/04/26 00:01:04;;;;;;;7.20;5.50;;;;;19.50;100733.00;;;;2061161;28;20281;-68
2023/04/26 00:02:04;;;;;;;7.15;5.30;;;;;19.40;100739.00;;;;2066798;28;20215;-68
2023/04/26 00:03:06;;;;;;;6.63;5.17;;;;;19.40;100736.00;;;;2064779;28;20746;-68
2023/04/26 00:04:07;;;;;;;5.78;4.82;;;;;19.40;100739.00;;;;2069446;28;20313;-68
2023/04/26 00:05:08;;;;;;;5.30;4.63;;;;;19.40;100741.00;;;;2068202;28;20340;-68
2023/04/26 00:06:08;;;;;;;7.87;5.20;;;;;19.40;100739.00;;;;2070827;28;20571;-68
2023/04/26 00:07:09;;;;;;;7.33;5.47;;;;;19.40;100744.00;;;;2056108;28;20765;-68
2023/04/26 00:08:09;;;;;;;6.07;4.63;;;;;19.40;100747.00;;;;2052758;28;20208;-68
2023/04/26 00:09:09;;;;;;;5.70;4.60;;;;;19.40;100741.00;;;;2055677;28;20211;-68
2023/04/26 00:10:10;;;;;;;6.80;4.60;;;;;19.40;100745.00;;;;2066642;28;20253;-68
2023/04/26 00:11:10;;;;;;;6.50;5.33;;;;;19.40;100745.00;;;;2068860;28;20214;-68
2023/04/26 00:12:11;;;;;;;7.40;5.30;;;;;19.40;100745.00;;;;2064847;28;20229;-68
2023/04/26 00:13:11;;;;;;;5.47;4.33;;;;;19.40;100744.00;;;;2068771;28;20225;-68
2023/04/26 00:14:12;;;;;;;5.20;4.40;;;;;19.40;100742.00;;;;2064401;28;20218;-68
2023/04/26 00:15:12;;;;;;;6.90;4.67;;;;;19.40;100742.00;;;;2056747;28;20215;-68
2023/04/26 00:16:13;;;;;;;5.07;4.20;;;;;19.40;100738.00;;;;2057994;28;20249;-68
2023/04/26 00:17:13;;;;;;;6.17;5.17;;;;;19.40;100739.00;;;;2070017;28;20268;-68
2023/04/26 00:18:13;;;;;;;6.00;4.80;;;;;19.40;100738.00;;;;2059351;28;20234;-68
2023/04/26 00:19:14;;;;;;;5.60;4.73;;;;;19.40;100737.00;;;;2062886;28;20280;-68
2023/04/26 00:20:15;;;;;;;5.72;4.15;;;;;19.40;100741.00;;;;2065571;28;20732;-68
2023/04/26 00:21:15;;;;;;;6.40;5.67;;;;;19.40;100737.00;;;;2065000;28;20298;-68
2023/04/26 00:22:16;;;;;;;4.70;4.20;;;;;19.40;100739.00;;;;2071102;28;20288;-68
2023/04/26 00:23:17;;;;;;;5.77;4.50;;;;;19.40;100733.00;;;;2066335;28;20215;-68
2023/04/26 00:24:17;;;;;;;4.97;4.38;;;;;19.40;100730.00;;;;2071195;28;20298;-68
2023/04/26 00:25:17;;;;;;;4.93;3.80;;;;;19.40;100731.00;;;;2069610;28;20241;-68
2023/04/26 00:26:18;;;;;;;4.80;3.83;;;;;19.40;100734.00;;;;2068152;28;20219;-68
2023/04/26 00:27:18;;;;;;;7.13;5.20;;;;;19.30;100730.00;;;;2071651;28;20225;-68
2023/04/26 00:28:18;;;;;;;4.87;4.20;;;;;19.30;100724.00;;;;2065004;28;20207;-68
2023/04/26 00:29:19;;;;;;;6.07;4.17;;;;;19.40;100727.00;;;;2069751;28;20244;-68
2023/04/26 00:30:19;;;;;;;4.40;4.00;;;;;19.40;100723.00;;;;2064412;28;20214;-68
2023/04/26 00:31:19;;;;;;;4.93;4.47;;;;;19.40;100726.00;;;;2067679;28;20234;-68
2023/04/26 00:32:20;;;;;;;6.77;4.63;;;;;19.30;100729.00;;;;2067381;28;20218;-68
2023/04/26 00:33:20;;;;;;;5.00;4.00;;;;;19.40;100726.00;;;;2072216;28;20228;-68
2023/04/26 00:34:20;;;;;;;4.80;4.30;;;;;19.30;100724.00;;;;2069790;28;20218;-68
2023/04/26 00:35:21;;;;;;;4.63;3.50;;;;;19.30;100721.00;;;;2059274;28;20599;-68
2023/04/26 00:36:21;;;;;;;4.90;3.80;;;;;19.30;100717.00;;;;2056783;28;20720;-68
2023/04/26 00:37:22;;;;;;;5.07;3.70;;;;;19.30;100717.00;;;;2058679;28;20224;-68
2023/04/26 00:38:22;;;;;;;5.33;4.17;;;;;19.30;100724.00;;;;2064803;28;20298;-68
2023/04/26 00:39:23;;;;;;;5.77;3.97;;;;;19.30;100723.00;;;;2064342;28;20289;-68
2023/04/26 00:40:23;;;;;;;4.97;3.70;;;;;19.30;100721.00;;;;2072586;28;20210;-68
2023/04/26 00:41:23;;;;;;;5.17;4.40;;;;;19.30;100721.00;;;;2065037;28;20243;-68
2023/04/26 00:42:24;;;;;;;5.30;3.73;;;;;19.30;100724.00;;;;2064912;28;20214;-68
2023/04/26 00:43:24;;;;;;;5.33;3.87;;;;;19.30;100722.00;;;;2056009;28;20215;-68
2023/04/26 00:44:25;;;;;;;4.63;3.50;;;;;19.40;100715.00;;;;2055939;28;20493;-68
2023/04/26 00:45:25;;;;;;;5.43;4.00;;;;;19.30;100722.00;;;;2071990;28;20218;-68
2023/04/26 00:46:27;;;;;;;3.90;3.43;;;;;19.30;100710.00;;;;2064579;28;20285;-68
2023/04/26 00:47:28;;;;;;;3.50;3.20;;;;;19.30;100723.00;;;;2061365;28;20289;-68
2023/04/26 00:48:29;;;;;;;5.00;3.77;;;;;19.30;100714.00;;;;2065059;28;20764;-68
2023/04/26 00:49:29;;;;;;;6.20;3.90;;;;;19.30;100720.00;;;;2056614;28;20321;-68
2023/04/26 00:50:30;;;;;;;4.37;3.43;;;;;19.30;100716.00;;;;2054249;28;20473;-68
2023/04/26 00:51:30;;;;;;;4.17;3.40;;;;;19.30;100718.00;;;;2044483;28;20228;-68
2023/04/26 00:52:31;;;;;;;5.87;3.97;;;;;19.30;100715.00;;;;2051317;28;20300;-68
2023/04/26 00:53:33;;;;;;;4.60;3.37;;;;;19.30;100721.00;;;;2063337;28;20294;-68
2023/04/26 00:54:33;;;;;;;3.95;3.35;;;;;19.30;100715.00;;;;2049159;28;20212;-68
2023/04/26 00:55:33;;;;;;;4.73;3.53;;;;;19.30;100715.00;;;;2069267;28;20214;-67
2023/04/26 00:56:34;;;;;;;5.10;3.37;;;;;19.30;100714.00;;;;2059144;28;20216;-68
2023/04/26 00:57:34;;;;;;;4.57;3.17;;;;;19.30;100719.00;;;;2057610;28;20222;-68
2023/04/26 00:58:35;;;;;;;4.73;3.43;;;;;19.30;100705.00;;;;2068346;28;20219;-68
2023/04/26 00:59:36;;;;;;;4.18;3.30;;;;;19.30;100712.00;;;;2063993;28;20230;-68
2023/04/26 01:00:36;;;;;;;4.40;3.40;;;;;19.30;100712.00;;;;2055519;28;20218;-68
2023/04/26 01:01:37;;;;;;;5.17;3.40;;;;;19.20;100715.00;;;;2055335;28;20642;-68
2023/04/26 01:02:37;;;;;;;4.28;3.72;;;;;19.30;100707.00;;;;2064448;28;20214;-68
2023/04/26 01:03:38;;;;;;;4.27;3.40;;;;;19.30;100701.00;;;;2055941;28;20765;-68
2023/04/26 01:04:40;;;;;;;5.80;3.50;;;;;19.30;100715.00;;;;2057131;28;20714;-68
2023/04/26 01:05:40;;;;;;;5.32;3.70;;;;;19.20;100720.00;;;;2058690;28;20265;-68
2023/04/26 01:06:41;;;;;;;4.70;3.70;;;;;19.30;100711.00;;;;2061999;28;20769;-68
2023/04/26 01:07:41;;;;;;;4.50;3.33;;;;;19.30;100712.00;;;;2063615;28;20727;-68
2023/04/26 01:08:41;;;;;;;5.77;3.50;;;;;19.20;100712.00;;;;2065187;28;20226;-68
2023/04/26 01:09:42;;;;;;;4.33;3.30;;;;;19.20;100703.00;;;;2065603;28;20265;-68
2023/04/26 01:10:42;;;;;;;4.67;3.70;;;;;19.30;100718.00;;;;2065782;28;20669;-68
2023/04/26 01:11:43;;;;;;;5.00;3.47;;;;;19.20;100709.00;;;;2066026;28;20210;-68
2023/04/26 01:12:43;;;;;;;5.30;3.53;;;;;19.20;100719.00;;;;2063915;28;20281;-68
2023/04/26 01:13:43;;;;;;;3.90;3.07;;;;;19.30;100696.00;;;;2063920;28;20650;-68
2023/04/26 01:14:44;;;;;;;3.10;2.80;;;;;19.30;100704.00;;;;2056448;28;20743;-68
2023/04/26 01:15:45;;;;;;;4.73;3.63;;;;;19.20;100711.00;;;;2050019;28;20635;-68
2023/04/26 01:16:48;;;;;;;3.20;2.83;;;;;19.20;100715.00;;;;2050075;28;20224;-68
2023/04/26 01:17:49;;;;;;;4.15;3.10;;;;;19.20;100721.00;;;;2055588;28;20971;-68
2023/04/26 01:18:51;;;;;;;3.47;2.90;;;;;19.30;100722.00;;;;2058548;28;20222;-68
2023/04/26 01:19:51;;;;;;;3.85;3.40;;;;;19.20;100727.00;;;;2063376;28;20226;-67
2023/04/26 01:20:52;;;;;;;4.37;2.90;;;;;19.20;100725.00;;;;2059679;28;20683;-67
2023/04/26 01:21:52;;;;;;;3.00;2.70;;;;;19.20;100730.00;;;;2058996;28;20211;-67
2023/04/26 01:22:52;;;;;;;3.70;3.10;;;;;19.20;100730.00;;;;2061655;28;20552;-67
2023/04/26 01:23:53;;;;;;;3.60;3.00;;;;;19.20;100727.00;;;;2067176;28;20721;-67
2023/04/26 01:24:53;;;;;;;4.33;3.00;;;;;19.20;100728.00;;;;2070413;28;20959;-67
2023/04/26 01:25:55;;;;;;;5.30;2.90;;;;;19.20;100726.00;;;;2061081;28;20722;-67
2023/04/26 01:26:55;;;;;;;5.00;3.30;;;;;19.20;100731.00;;;;2051332;28;20216;-67
2023/04/26 01:27:56;;;;;;;4.63;3.27;;;;;19.20;100728.00;;;;2051149;28;20707;-68
2023/04/26 01:28:56;;;;;;;3.73;3.13;;;;;19.20;100727.00;;;;2059421;28;20209;-68
2023/04/26 01:29:57;;;;;;;3.30;2.90;;;;;19.20;100728.00;;;;2065409;28;20269;-67
2023/04/26 01:30:57;;;;;;;3.73;2.87;;;;;19.20;100730.00;;;;2065687;28;20481;-67
2023/04/26 01:31:57;;;;;;;4.00;3.10;;;;;19.20;100729.00;;;;2068309;28;20229;-67
2023/04/26 01:32:58;;;;;;;3.50;2.60;;;;;19.20;100734.00;;;;2067116;28;20238;-67
2023/04/26 01:33:58;;;;;;;4.17;3.70;;;;;19.20;100736.00;;;;2068350;28;20566;-67
2023/04/26 01:34:59;;;;;;;4.40;3.30;;;;;19.20;100739.00;;;;2062146;28;20222;-67
2023/04/26 01:35:59;;;;;;;4.13;3.00;;;;;19.20;100735.00;;;;2061534;28;20207;-67
2023/04/26 01:37:00;;;;;;;3.53;3.20;;;;;19.20;100735.00;;;;2068488;28;20461;-67
2023/04/26 01:38:00;;;;;;;2.80;2.27;;;;;19.20;100722.00;;;;2068786;28;20245;-67
2023/04/26 01:39:01;;;;;;;4.03;3.10;;;;;19.20;100730.00;;;;2070862;28;20224;-67
2023/04/26 01:40:01;;;;;;;4.07;2.80;;;;;19.20;100724.00;;;;2063616;28;20743;-67
2023/04/26 01:41:01;;;;;;;3.73;2.80;;;;;19.20;100724.00;;;;2064150;28;20710;-67
2023/04/26 01:42:03;;;;;;;2.90;2.60;;;;;19.20;100730.00;;;;2066870;28;20237;-67
2023/04/26 01:43:03;;;;;;;3.00;2.40;;;;;19.10;100723.00;;;;2063268;28;20389;-67
2023/04/26 01:44:04;;;;;;;3.43;2.73;;;;;19.10;100726.00;;;;2066347;28;20257;-67
2023/04/26 01:45:05;;;;;;;4.63;2.80;;;;;19.20;100726.00;;;;2068162;28;20583;-67
2023/04/26 01:46:05;;;;;;;3.13;2.70;;;;;19.10;100728.00;;;;2071458;28;20213;-67
2023/04/26 01:47:06;;;;;;;4.00;3.00;;;;;19.10;100730.00;;;;2066380;28;20659;-67
2023/04/26 01:48:07;;;;;;;3.07;2.77;;;;;19.10;100722.00;;;;2063763;28;20573;-67
2023/04/26 01:49:07;;;;;;;3.50;2.83;;;;;19.10;100718.00;;;;2065892;28;20203;-67
2023/04/26 01:50:09;;;;;;;2.80;2.43;;;;;19.20;100719.00;;;;2065944;28;20202;-67
2023/04/26 01:51:09;;;;;;;3.03;2.50;;;;;19.10;100721.00;;;;2069548;28;20211;-67
2023/04/26 01:52:10;;;;;;;3.90;3.23;;;;;19.10;100719.00;;;;2064549;28;20702;-68
2023/04/26 01:53:10;;;;;;;2.90;2.60;;;;;19.10;100722.00;;;;2069666;28;20198;-68
2023/04/26 01:54:10;;;;;;;3.00;2.63;;;;;19.10;100724.00;;;;2067866;28;20328;-68
2023/04/26 01:55:11;;;;;;;2.70;2.40;;;;;19.10;100728.00;;;;2063924;28;20211;-68
2023/04/26 01:56:11;;;;;;;3.50;2.70;;;;;19.10;100725.00;;;;2067959;28;20218;-67
2023/04/26 01:57:11;;;;;;;3.00;2.50;;;;;19.10;100727.00;;;;2063542;28;20227;-67
2023/04/26 01:58:12;;;;;;;2.97;2.37;;;;;19.10;100729.00;;;;2069505;28;20261;-67
2023/04/26 01:59:12;;;;;;;2.70;2.10;;;;;19.10;100727.00;;;;2055401;28;20224;-67
2023/04/26 02:00:13;;;;;;;3.10;2.40;;;;;19.10;100732.00;;;;2055303;28;20227;-67
2023/04/26 02:01:13;;;;;;;4.93;2.70;;;;;19.10;100734.00;;;;2062826;28;20229;-68
2023/04/26 02:02:16;;;;;;;2.77;2.33;;;;;19.10;100734.00;;;;2063703;28;20222;-68
2023/04/26 02:03:16;;;;;;;4.38;2.92;;;;;19.10;100723.00;;;;2069719;28;20297;-68
2023/04/26 02:04:17;;;;;;;2.73;2.47;;;;;19.10;100729.00;;;;2061715;28;20698;-68
2023/04/26 02:05:17;;;;;;;2.40;2.20;;;;;19.10;100722.00;;;;2055765;28;20216;-68
2023/04/26 02:06:17;;;;;;;3.10;2.40;;;;;19.10;100729.00;;;;2064036;28;20215;-68
2023/04/26 02:07:18;;;;;;;4.57;2.70;;;;;19.10;100730.00;;;;2067004;28;20214;-68
2023/04/26 02:08:18;;;;;;;4.50;2.53;;;;;19.10;100737.00;;;;2059453;28;20217;-68
2023/04/26 02:09:19;;;;;;;2.53;2.23;;;;;19.10;100728.00;;;;2061163;28;20730;-67
2023/04/26 02:10:19;;;;;;;4.87;2.50;;;;;19.10;100734.00;;;;2054378;28;20737;-67
2023/04/26 02:11:20;;;;;;;3.97;2.70;;;;;19.10;100735.00;;;;2061446;28;20824;-67
2023/04/26 02:12:20;;;;;;;2.53;2.33;;;;;19.10;100726.00;;;;2063395;28;20675;-67
2023/04/26 02:13:20;;;;;;;3.90;2.20;;;;;19.10;100737.00;;;;2063582;28;20210;-67
2023/04/26 02:14:21;;;;;;;4.10;2.67;;;;;19.10;100735.00;;;;2058986;28;20222;-67
2023/04/26 02:15:21;;;;;;;2.53;2.00;;;;;19.10;100733.00;;;;2055353;28;20260;-67
2023/04/26 02:16:21;;;;;;;3.57;2.83;;;;;19.10;100738.00;;;;2063065;28;20247;-68
2023/04/26 02:17:22;;;;;;;3.20;2.70;;;;;19.00;100730.00;;;;2063177;28;20583;-67
2023/04/26 02:18:23;;;;;;;7.13;2.13;;;;;19.00;100731.00;;;;2065841;28;20215;-67
2023/04/26 02:19:23;;;;;;;2.17;1.90;;;;;19.10;100734.00;;;;2065023;28;20210;-67
2023/04/26 02:20:24;;;;;;;3.47;2.80;;;;;19.00;100731.00;;;;2046301;28;20463;-67
2023/04/26 02:21:25;;;;;;;3.00;2.47;;;;;19.00;100714.00;;;;2050900;28;20219;-67
2023/04/26 02:22:25;;;;;;;3.45;2.35;;;;;19.00;100726.00;;;;2063125;28;20641;-67
2023/04/26 02:23:26;;;;;;;3.20;2.47;;;;;19.00;100728.00;;;;2063661;28;20215;-67
2023/04/26 02:24:26;;;;;;;3.23;2.67;;;;;19.00;100730.00;;;;2054997;28;20215;-67
2023/04/26 02:25:26;;;;;;;2.43;1.80;;;;;19.00;100721.00;;;;2062970;28;20749;-68
2023/04/26 02:26:27;;;;;;;2.83;2.30;;;;;19.00;100725.00;;;;2062422;28;20219;-68
2023/04/26 02:27:27;;;;;;;2.63;2.40;;;;;19.00;100736.00;;;;2063369;28;20268;-68
2023/04/26 02:28:27;;;;;;;3.13;2.37;;;;;19.00;100734.00;;;;2062907;28;20226;-68
2023/04/26 02:29:28;;;;;;;2.40;2.20;;;;;19.00;100730.00;;;;2069092;28;20221;-68
2023/04/26 02:30:29;;;;;;;2.30;2.07;;;;;19.00;100724.00;;;;2063605;28;20230;-68
2023/04/26 02:31:29;;;;;;;3.20;2.30;;;;;19.00;100726.00;;;;2062953;28;20225;-68
2023/04/26 02:32:30;;;;;;;3.00;2.70;;;;;19.00;100732.00;;;;2062389;28;20209;-68
2023/04/26 02:33:30;;;;;;;2.80;2.57;;;;;19.00;100729.00;;;;2054629;28;20694;-68
2023/04/26 02:34:31;;;;;;;3.00;2.47;;;;;19.00;100728.00;;;;2063014;28;20215;-68
2023/04/26 02:35:31;;;;;;;2.97;2.30;;;;;19.00;100730.00;;;;2068032;28;20226;-68
2023/04/26 02:36:32;;;;;;;3.00;2.40;;;;;19.00;100730.00;;;;2070356;28;20218;-68
2023/04/26 02:37:33;;;;;;;2.77;2.20;;;;;19.00;100731.00;;;;2063668;28;20224;-67
2023/04/26 02:38:34;;;;;;;3.20;2.57;;;;;19.00;100731.00;;;;2063534;28;20699;-68
2023/04/26 02:39:35;;;;;;;4.18;2.40;;;;;19.00;100729.00;;;;2057876;28;20997;-68
2023/04/26 02:40:35;;;;;;;3.73;2.20;;;;;19.00;100732.00;;;;2057030;28;20216;-68
2023/04/26 02:41:35;;;;;;;2.20;2.00;;;;;19.00;100724.00;;;;2062985;28;20207;-68
2023/04/26 02:42:36;;;;;;;2.73;2.30;;;;;19.00;100731.00;;;;2063149;28;20272;-68
2023/04/26 02:43:36;;;;;;;4.40;2.37;;;;;19.00;100732.00;;;;2054876;28;20208;-68
2023/04/26 02:44:38;;;;;;;3.30;2.07;;;;;19.00;100722.00;;;;2047767;28;20216;-68
2023/04/26 02:45:44;;;;;;;2.28;1.85;;;;;19.00;100724.00;;;;2055226;28;20258;-68
2023/04/26 02:46:44;;;;;;;2.75;2.20;;;;;19.00;100719.00;;;;2063580;28;21041;-68
2023/04/26 02:47:45;;;;;;;3.60;2.37;;;;;19.00;100720.00;;;;2062857;28;20223;-68
2023/04/26 02:48:45;;;;;;;3.20;2.50;;;;;19.00;100723.00;;;;2063881;28;20242;-68
2023/04/26 02:49:45;;;;;;;3.23;2.30;;;;;19.00;100731.00;;;;2063053;28;20250;-68
2023/04/26 02:50:46;;;;;;;3.60;2.10;;;;;19.00;100728.00;;;;2065316;28;20230;-68
2023/04/26 02:51:46;;;;;;;6.40;2.20;;;;;19.00;100721.00;;;;2068966;28;20317;-68
2023/04/26 02:52:46;;;;;;;3.57;3.10;;;;;19.00;100729.00;;;;2063314;28;20580;-68
2023/04/26 02:53:47;;;;;;;3.07;2.13;;;;;19.00;100721.00;;;;2065548;28;20671;-68
2023/04/26 02:54:47;;;;;;;2.37;2.17;;;;;19.00;100724.00;;;;2064216;28;20230;-68
2023/04/26 02:55:47;;;;;;;2.83;2.57;;;;;18.90;100709.00;;;;2064587;28;20254;-68
2023/04/26 02:56:48;;;;;;;2.50;2.10;;;;;18.90;100724.00;;;;2067237;28;20222;-68
2023/04/26 02:57:48;;;;;;;3.23;2.73;;;;;19.00;100723.00;;;;2062432;28;20250;-68
2023/04/26 02:58:49;;;;;;;3.20;2.20;;;;;19.00;100725.00;;;;2063970;28;20218;-67
2023/04/26 02:59:49;;;;;;;3.03;2.10;;;;;19.00;100725.00;;;;2054776;28;20224;-67
2023/04/26 03:00:49;;;;;;;3.10;2.43;;;;;19.00;100728.00;;;;2061712;28;20679;-67
2023/04/26 03:01:50;;;;;;;3.00;2.13;;;;;18.90;100721.00;;;;2065922;28;20215;-68
2023/04/26 03:02:50;;;;;;;2.50;2.30;;;;;19.00;100723.00;;;;2063563;28;20249;-68
2023/04/26 03:03:51;;;;;;;3.00;2.27;;;;;18.90;100726.00;;;;2065961;28;20563;-68
2023/04/26 03:04:51;;;;;;;3.57;2.30;;;;;19.00;100722.00;;;;2068271;28;20232;-68
2023/04/26 03:05:51;;;;;;;2.30;1.87;;;;;19.00;100723.00;;;;2063404;28;20237;-68
2023/04/26 03:06:52;;;;;;;4.10;2.60;;;;;18.90;100723.00;;;;2063851;28;20218;-68
2023/04/26 03:07:52;;;;;;;3.87;2.07;;;;;19.00;100722.00;;;;2062676;28;20228;-67
2023/04/26 03:08:53;;;;;;;2.63;1.83;;;;;18.90;100721.00;;;;2066064;28;20775;-67
2023/04/26 03:09:53;;;;;;;5.77;2.37;;;;;18.90;100718.00;;;;2066640;28;20225;-68
2023/04/26 03:10:53;;;;;;;2.77;2.20;;;;;18.90;100723.00;;;;2057393;28;20222;-68
2023/04/26 03:11:54;;;;;;;2.20;2.00;;;;;18.90;100711.00;;;;2057394;28;20254;-68
2023/04/26 03:12:54;;;;;;;2.90;2.00;;;;;18.90;100719.00;;;;2054789;28;20222;-67
2023/04/26 03:13:54;;;;;;;3.30;2.23;;;;;18.90;100723.00;;;;2049319;28;20242;-67
2023/04/26 03:14:55;;;;;;;2.77;2.30;;;;;18.90;100714.00;;;;2055976;28;20280;-67
2023/04/26 03:15:55;;;;;;;2.80;1.90;;;;;18.90;100714.00;;;;2063471;28;20218;-67
2023/04/26 03:16:55;;;;;;;2.87;2.10;;;;;18.90;100717.00;;;;2063117;28;21386;-67
2023/04/26 03:17:56;;;;;;;3.50;2.43;;;;;18.90;100719.00;;;;2065186;28;20202;-67
2023/04/26 03:18:57;;;;;;;2.85;2.08;;;;;18.90;100719.00;;;;2054256;28;20215;-67
2023/04/26 03:19:57;;;;;;;3.50;2.60;;;;;18.90;100720.00;;;;2054739;28;20640;-67
2023/04/26 03:20:58;;;;;;;2.90;2.00;;;;;18.90;100720.00;;;;2058852;28;20215;-67
2023/04/26 03:21:58;;;;;;;2.13;1.77;;;;;18.90;100716.00;;;;2058060;28;20199;-67
2023/04/26 03:22:58;;;;;;;2.87;2.00;;;;;18.90;100717.00;;;;2060241;28;20264;-67
2023/04/26 03:23:58;;;;;;;2.37;2.03;;;;;18.90;100718.00;;;;2059029;28;20221;-67
2023/04/26 03:24:59;;;;;;;2.37;1.90;;;;;18.90;100717.00;;;;2063202;28;20232;-67
2023/04/26 03:25:59;;;;;;;2.50;1.87;;;;;18.90;100712.00;;;;2062914;28;20906;-67
2023/04/26 03:27:00;;;;;;;2.53;1.90;;;;;18.90;100720.00;;;;2063153;28;20214;-68
2023/04/26 03:28:00;;;;;;;2.20;1.63;;;;;18.90;100712.00;;;;2066582;28;20290;-67
2023/04/26 03:29:01;;;;;;;2.50;1.90;;;;;18.90;100711.00;;;;2064368;28;20218;-67
2023/04/26 03:30:02;;;;;;;2.20;1.90;;;;;18.90;100717.00;;;;2063327;28;20233;-67
2023/04/26 03:31:03;;;;;;;2.95;2.05;;;;;18.90;100716.00;;;;2062471;28;20222;-67
2023/04/26 03:32:03;;;;;;;2.13;1.93;;;;;18.90;100714.00;;;;2063556;28;20210;-67
2023/04/26 03:33:04;;;;;;;2.77;2.00;;;;;18.90;100706.00;;;;2068207;28;20244;-67
2023/04/26 03:34:05;;;;;;;2.47;2.00;;;;;18.90;100710.00;;;;2065883;28;20228;-67
2023/04/26 03:35:05;;;;;;;2.80;1.90;;;;;18.90;100707.00;;;;2066033;28;20221;-67
2023/04/26 03:36:05;;;;;;;2.07;1.87;;;;;18.90;100711.00;;;;2063844;28;20467;-67
2023/04/26 03:37:06;;;;;;;2.30;1.73;;;;;18.90;100707.00;;;;2070332;28;20209;-67
2023/04/26 03:38:06;;;;;;;3.30;2.27;;;;;18.90;100701.00;;;;2066634;28;20214;-67
2023/04/26 03:39:07;;;;;;;2.20;2.00;;;;;18.90;100700.00;;;;2065938;28;20230;-68
2023/04/26 03:40:08;;;;;;;2.20;2.00;;;;;18.90;100710.00;;;;2065445;28;20624;-68
2023/04/26 03:41:08;;;;;;;1.70;1.50;;;;;18.90;100709.00;;;;2066030;28;20206;-67
2023/04/26 03:42:08;;;;;;;2.73;1.83;;;;;18.90;100706.00;;;;2070503;28;20206;-68
2023/04/26 03:43:09;;;;;;;2.40;2.10;;;;;18.80;100706.00;;;;2070262;28;20236;-68
2023/04/26 03:44:09;;;;;;;4.70;2.30;;;;;18.80;100703.00;;;;2069419;28;20778;-68
2023/04/26 03:45:09;;;;;;;3.77;1.77;;;;;18.80;100711.00;;;;2065734;28;20631;-68
2023/04/26 03:46:10;;;;;;;2.03;1.67;;;;;18.80;100705.00;;;;2065983;28;20558;-68
2023/04/26 03:47:10;;;;;;;3.47;2.03;;;;;18.90;100703.00;;;;2065622;28;20230;-68
2023/04/26 03:48:10;;;;;;;2.33;1.90;;;;;18.80;100696.00;;;;2070713;28;20312;-68
2023/04/26 03:49:11;;;;;;;1.97;1.77;;;;;18.90;100703.00;;;;2068032;28;20203;-68
2023/04/26 03:50:11;;;;;;;2.30;1.73;;;;;18.90;100702.00;;;;2068498;28;20233;-68
2023/04/26 03:51:11;;;;;;;2.57;1.67;;;;;18.80;100702.00;;;;2067278;28;20632;-68
2023/04/26 03:52:12;;;;;;;2.30;2.10;;;;;18.90;100705.00;;;;2066026;28;20220;-68
2023/04/26 03:53:12;;;;;;;3.10;1.70;;;;;18.80;100703.00;;;;2065845;28;20206;-68
2023/04/26 03:54:13;;;;;;;2.97;1.90;;;;;18.90;100701.00;;;;2068709;28;20237;-68
2023/04/26 03:55:13;;;;;;;3.03;1.90;;;;;18.80;100701.00;;;;2065893;28;20202;-68
2023/04/26 03:56:14;;;;;;;3.27;1.93;;;;;18.80;100696.00;;;;2070957;28;20212;-68
2023/04/26 03:57:14;;;;;;;1.90;1.73;;;;;18.80;100706.00;;;;2066692;28;20206;-68
2023/04/26 03:58:15;;;;;;;2.37;1.77;;;;;18.80;100684.00;;;;2071211;28;20752;-67
2023/04/26 03:59:15;;;;;;;3.10;1.80;;;;;18.80;100699.00;;;;2066430;28;20279;-68
2023/04/26 04:00:15;;;;;;;2.73;1.80;;;;;18.80;100698.00;;;;2066052;28;20249;-68
2023/04/26 04:01:16;;;;;;;2.20;1.97;;;;;18.80;100702.00;;;;2065865;28;20222;-68
2023/04/26 04:02:16;;;;;;;2.20;2.00;;;;;18.80;100706.00;;;;2071122;28;20267;-68
2023/04/26 04:03:16;;;;;;;2.33;1.90;;;;;18.80;100702.00;;;;2072916;28;20562;-68
2023/04/26 04:04:17;;;;;;;3.20;1.80;;;;;18.80;100705.00;;;;2065573;28;20221;-68
2023/04/26 04:05:17;;;;;;;2.00;1.80;;;;;18.80;100705.00;;;;2065953;28;20226;-68
2023/04/26 04:06:17;;;;;;;2.10;1.87;;;;;18.80;100700.00;;;;2065505;28;20222;-67
2023/04/26 04:07:18;;;;;;;3.20;2.13;;;;;18.80;100697.00;;;;2072912;28;20239;-68
2023/04/26 04:08:18;;;;;;;2.03;1.80;;;;;18.80;100705.00;;;;2067586;28;20599;-67
2023/04/26 04:09:18;;;;;;;2.63;2.10;;;;;18.80;100699.00;;;;2065799;28;20210;-67
2023/04/26 04:10:19;;;;;;;5.93;1.60;;;;;18.80;100699.00;;;;2065685;28;20527;-68
2023/04/26 04:11:20;;;;;;;2.47;2.07;;;;;18.80;100705.00;;;;2065289;28;21087;-67
2023/04/26 04:12:21;;;;;;;2.20;1.90;;;;;18.80;100696.00;;;;2063238;28;20388;-67
2023/04/26 04:13:22;;;;;;;2.00;1.80;;;;;18.80;100696.00;;;;2058712;28;20510;-67
2023/04/26 04:14:22;;;;;;;2.00;1.50;;;;;18.80;100703.00;;;;2065914;28;20568;-67
2023/04/26 04:15:22;;;;;;;2.57;1.87;;;;;18.80;100704.00;;;;2065307;28;20574;-67
2023/04/26 04:16:23;;;;;;;3.13;1.70;;;;;18.80;100702.00;;;;2065833;28;20287;-67
2023/04/26 04:17:23;;;;;;;2.90;1.60;;;;;18.80;100673.00;;;;2072143;28;20228;-67
2023/04/26 04:18:23;;;;;;;2.50;1.40;;;;;18.80;100696.00;;;;2058097;28;20216;-68
2023/04/26 04:19:24;;;;;;;1.97;1.77;;;;;18.80;100708.00;;;;2057206;28;20246;-68
2023/04/26 04:20:24;;;;;;;2.37;2.00;;;;;18.80;100705.00;;;;2063803;28;20207;-68
2023/04/26 04:21:26;;;;;;;2.33;1.90;;;;;18.70;100705.00;;;;2065825;28;20379;-67
2023/04/26 04:22:26;;;;;;;2.45;1.75;;;;;18.70;100707.00;;;;2065032;28;20647;-67
2023/04/26 04:23:27;;;;;;;2.20;2.00;;;;;18.80;100705.00;;;;2072717;28;20210;-67
2023/04/26 04:24:27;;;;;;;5.57;2.10;;;;;18.80;100707.00;;;;2067117;28;20246;-67
2023/04/26 04:25:27;;;;;;;2.33;1.80;;;;;18.80;100709.00;;;;2065185;28;20215;-67
2023/04/26 04:26:28;;;;;;;1.90;1.60;;;;;18.70;100709.00;;;;2065849;28;20308;-67
2023/04/26 04:27:28;;;;;;;2.70;2.00;;;;;18.70;100709.00;;;;2067760;28;20219;-67
2023/04/26 04:28:28;;;;;;;3.13;2.00;;;;;18.70;100709.00;;;;2072680;28;20217;-67
2023/04/26 04:29:29;;;;;;;3.33;1.63;;;;;18.80;100713.00;;;;2066293;28;20218;-67
2023/04/26 04:30:29;;;;;;;3.20;1.93;;;;;18.70;100713.00;;;;2073034;28;20214;-67
2023/04/26 04:31:30;;;;;;;3.17;1.80;;;;;18.70;100710.00;;;;2066651;28;20225;-67
2023/04/26 04:32:31;;;;;;;2.10;1.90;;;;;18.80;100714.00;;;;2065134;28;20248;-67
2023/04/26 04:33:32;;;;;;;3.47;1.73;;;;;18.80;100713.00;;;;2065944;28;20218;-67
2023/04/26 04:34:35;;;;;;;2.83;1.87;;;;;18.70;100712.00;;;;2065431;28;20238;-67
2023/04/26 04:35:35;;;;;;;2.85;1.80;;;;;18.70;100720.00;;;;2065858;28;20690;-68
2023/04/26 04:36:37;;;;;;;2.77;2.00;;;;;18.70;100711.00;;;;2064990;28;20224;-68
2023/04/26 04:37:38;;;;;;;2.17;1.80;;;;;18.70;100715.00;;;;2065686;28;20217;-68
2023/04/26 04:38:38;;;;;;;3.97;2.10;;;;;18.70;100709.00;;;;2073361;28;20253;-68
2023/04/26 04:39:38;;;;;;;2.03;1.40;;;;;18.70;100729.00;;;;2065150;28;20210;-68
2023/04/26 04:40:39;;;;;;;2.97;1.67;;;;;18.70;100721.00;;;;2065675;28;20203;-68
2023/04/26 04:41:46;;;;;;;3.80;2.00;;;;;18.70;100717.00;;;;2065179;28;20216;-68
2023/04/26 04:42:46;;;;;;;2.60;2.20;;;;;18.80;100728.00;;;;2065524;28;20644;-68
2023/04/26 04:43:47;;;;;;;1.77;1.67;;;;;18.70;100727.00;;;;2062972;28;20210;-68
2023/04/26 04:44:48;;;;;;;2.10;1.80;;;;;18.70;100721.00;;;;2065420;28;20222;-68
2023/04/26 04:45:49;;;;;;;3.00;1.65;;;;;18.70;100730.00;;;;2068032;28;20585;-68
2023/04/26 04:46:49;;;;;;;3.20;1.83;;;;;18.70;100727.00;;;;2065912;28;20220;-68
2023/04/26 04:47:50;;;;;;;4.77;2.20;;;;;18.70;100727.00;;;;2066778;28;20234;-68
2023/04/26 04:48:50;;;;;;;2.30;1.90;;;;;18.70;100709.00;;;;2065152;28;20233;-68
2023/04/26 04:49:51;;;;;;;3.73;1.53;;;;;18.70;100726.00;;;;2072010;28;20210;-68
2023/04/26 04:50:52;;;;;;;3.10;2.13;;;;;18.70;100722.00;;;;2066239;28;20242;-67
2023/04/26 04:51:52;;;;;;;2.43;1.70;;;;;18.70;100724.00;;;;2065768;28;20598;-68
2023/04/26 04:52:52;;;;;;;3.27;1.60;;;;;18.70;100719.00;;;;2064313;28;20222;-67
2023/04/26 04:53:53;;;;;;;2.53;1.80;;;;;18.70;100720.00;;;;2064480;28;20218;-67
2023/04/26 04:54:53;;;;;;;2.53;1.90;;;;;18.70;100722.00;;;;2064169;28;20228;-67
2023/04/26 04:55:53;;;;;;;2.30;1.73;;;;;18.70;100722.00;;;;2056568;28;20223;-67
2023/04/26 04:56:54;;;;;;;2.50;1.70;;;;;18.70;100727.00;;;;2061717;28;20265;-67
2023/04/26 04:57:54;;;;;;;2.03;1.77;;;;;18.70;100728.00;;;;2063749;28;20292;-67
2023/04/26 04:58:55;;;;;;;1.93;1.70;;;;;18.70;100728.00;;;;2064436;28;20304;-67
2023/04/26 04:59:55;;;;;;;3.00;2.00;;;;;18.70;100729.00;;;;2064212;28;20265;-67